sensor_id;sensor_type;location;lat;lon;timestamp;pressure;altitude;pressure_sealevel;temperature;humidity
7018;BME280;3549;42.162;24.726;2023-12-04T00:01:57;46675.41;;;-141.97;100.00
7018;BME280;3549;42.162;24.726;2023-12-04T00:04:22;46239.25;;;-141.97;100.00
7018;BME280;3549;42.162;24.726;2023-12-04T00:06:48;46452.50;;;-141.97;100.00
7018;BME280;3549;42.162;24.726;2023-12-04T00:09:13;46181.59;;;-141.97;100.00
7018;BME280;3549;42.162;24.726;2023-12-04T00:11:38;46077.84;;;-141.97;100.00
7018;BME280;3549;42.162;24.726;2023-12-04T00:14:04;46496.72;;;-141.97;100.00
7018;BME280;3549;42.162;24.726;2023-12-04T00:16:29;46243.09;;;-141.97;100.00
7018;BME280;3549;42.162;24.726;2023-12-04T00:18:54;46104.75;;;-141.97;100.00
7018;BME280;3549;42.162;24.726;2023-12-04T00:21:20;45918.41;;;-141.97;100.00
7018;BME280;3549;42.162;24.726;2023-12-04T00:23:45;46216.19;;;-141.97;100.00
7018;BME280;3549;42.162;24.726;2023-12-04T00:26:12;46508.22;;;-141.97;100.00
7018;BME280;3549;42.162;24.726;2023-12-04T00:28:38;46231.56;;;-141.97;100.00
7018;BME280;3549;42.162;24.726;2023-12-04T00:31:04;46600.47;;;-141.97;100.00
7018;BME280;3549;42.162;24.726;2023-12-04T00:33:30;46473.66;;;-141.97;100.00
7018;BME280;3549;42.162;24.726;2023-12-04T00:35:56;46581.25;;;-141.97;100.00
7018;BME280;3549;42.162;24.726;2023-12-04T00:38:22;46531.28;;;-141.97;100.00
7018;BME280;3549;42.162;24.726;2023-12-04T00:40:47;46045.19;;;-141.97;100.00
7018;BME280;3549;42.162;24.726;2023-12-04T00:43:13;46112.44;;;-141.97;100.00
7018;BME280;3549;42.162;24.726;2023-12-04T00:45:38;46099.00;;;-141.97;100.00
7018;BME280;3549;42.162;24.726;2023-12-04T00:48:04;46581.25;;;-141.97;100.00
7018;BME280;3549;42.162;24.726;2023-12-04T00:50:29;46246.94;;;-141.97;100.00
7018;BME280;3549;42.162;24.726;2023-12-04T00:52:54;46120.13;;;-141.97;100.00
7018;BME280;3549;42.162;24.726;2023-12-04T00:55:20;46081.69;;;-141.97;100.00
7018;BME280;3549;42.162;24.726;2023-12-04T00:57:46;45947.22;;;-141.97;100.00
7018;BME280;3549;42.162;24.726;2023-12-04T01:00:11;46173.91;;;-141.97;100.00
7018;BME280;3549;42.162;24.726;2023-12-04T01:02:37;46227.72;;;-141.97;100.00
7018;BME280;3549;42.162;24.726;2023-12-04T01:05:03;46615.84;;;-141.97;100.00
7018;BME280;3549;42.162;24.726;2023-12-04T01:07:28;46039.44;;;-141.97;100.00
7018;BME280;3549;42.162;24.726;2023-12-04T01:09:54;46049.03;;;-141.97;100.00
7018;BME280;3549;42.162;24.726;2023-12-04T01:12:19;46139.34;;;-141.97;100.00
7018;BME280;3549;42.162;24.726;2023-12-04T01:14:46;46243.09;;;-141.97;100.00
7018;BME280;3549;42.162;24.726;2023-12-04T01:17:11;46172.00;;;-141.97;100.00
7018;BME280;3549;42.162;24.726;2023-12-04T01:19:37;46235.41;;;-141.97;100.00
7018;BME280;3549;42.162;24.726;2023-12-04T01:22:02;46141.25;;;-141.97;100.00
7018;BME280;3549;42.162;24.726;2023-12-04T01:24:28;46241.16;;;-141.97;100.00
7018;BME280;3549;42.162;24.726;2023-12-04T01:26:53;46068.25;;;-141.97;100.00
7018;BME280;3549;42.162;24.726;2023-12-04T01:29:19;46262.28;;;-141.97;100.00
7018;BME280;3549;42.162;24.726;2023-12-04T01:31:44;46243.09;;;-141.97;100.00
7018;BME280;3549;42.162;24.726;2023-12-04T01:34:09;46102.81;;;-141.97;100.00
7018;BME280;3549;42.162;24.726;2023-12-04T01:36:35;46177.75;;;-141.97;100.00
7018;BME280;3549;42.162;24.726;2023-12-04T01:39:00;46077.84;;;-141.97;100.00
7018;BME280;3549;42.162;24.726;2023-12-04T01:41:26;46198.91;;;-141.97;100.00
7018;BME280;3549;42.162;24.726;2023-12-04T01:43:51;46527.44;;;-141.97;100.00
7018;BME280;3549;42.162;24.726;2023-12-04T01:46:17;46133.56;;;-141.97;100.00
7018;BME280;3549;42.162;24.726;2023-12-04T01:48:44;46636.97;;;-141.97;100.00
7018;BME280;3549;42.162;24.726;2023-12-04T01:51:12;46070.16;;;-141.97;100.00
7018;BME280;3549;42.162;24.726;2023-12-04T01:53:39;46246.94;;;-141.97;100.00
7018;BME280;3549;42.162;24.726;2023-12-04T01:56:05;46074.00;;;-141.97;100.00
7018;BME280;3549;42.162;24.726;2023-12-04T01:58:32;46588.94;;;-141.97;100.00
7018;BME280;3549;42.162;24.726;2023-12-04T02:00:58;45962.59;;;-141.97;100.00
7018;BME280;3549;42.162;24.726;2023-12-04T02:03:24;46241.16;;;-141.97;100.00
7018;BME280;3549;42.162;24.726;2023-12-04T02:05:51;46025.97;;;-141.97;100.00
7018;BME280;3549;42.162;24.726;2023-12-04T02:08:18;46569.72;;;-141.97;100.00
7018;BME280;3549;42.162;24.726;2023-12-04T02:10:44;46245.00;;;-141.97;100.00
7018;BME280;3549;42.162;24.726;2023-12-04T02:13:10;46650.44;;;-141.97;100.00
7018;BME280;3549;42.162;24.726;2023-12-04T02:15:35;46385.25;;;-141.97;100.00
7018;BME280;3549;42.162;24.726;2023-12-04T02:18:03;45983.72;;;-141.97;100.00
7018;BME280;3549;42.162;24.726;2023-12-04T02:20:35;46245.00;;;-141.97;100.00
7018;BME280;3549;42.162;24.726;2023-12-04T02:23:03;46540.91;;;-141.97;100.00
7018;BME280;3549;42.162;24.726;2023-12-04T02:25:29;46477.50;;;-141.97;100.00
7018;BME280;3549;42.162;24.726;2023-12-04T02:27:57;46068.25;;;-141.97;100.00
7018;BME280;3549;42.162;24.726;2023-12-04T02:30:30;46246.94;;;-141.97;100.00
7018;BME280;3549;42.162;24.726;2023-12-04T02:32:58;46058.63;;;-141.97;100.00
7018;BME280;3549;42.162;24.726;2023-12-04T02:35:27;46588.94;;;-141.97;100.00
7018;BME280;3549;42.162;24.726;2023-12-04T02:37:55;46381.41;;;-141.97;100.00
7018;BME280;3549;42.162;24.726;2023-12-04T02:40:21;46556.28;;;-141.97;100.00
7018;BME280;3549;42.162;24.726;2023-12-04T02:42:47;45962.59;;;-141.97;100.00
7018;BME280;3549;42.162;24.726;2023-12-04T02:45:12;46079.78;;;-141.97;100.00
7018;BME280;3549;42.162;24.726;2023-12-04T02:47:37;46047.13;;;-141.97;100.00
7018;BME280;3549;42.162;24.726;2023-12-04T02:50:03;46414.09;;;-141.97;100.00
7018;BME280;3549;42.162;24.726;2023-12-04T02:52:29;46246.94;;;-141.97;100.00
7018;BME280;3549;42.162;24.726;2023-12-04T02:54:54;46104.75;;;-141.97;100.00
7018;BME280;3549;42.162;24.726;2023-12-04T02:57:19;46277.66;;;-141.97;100.00
7018;BME280;3549;42.162;24.726;2023-12-04T02:59:45;46627.38;;;-141.97;100.00
7018;BME280;3549;42.162;24.726;2023-12-04T03:02:10;46223.88;;;-141.97;100.00
7018;BME280;3549;42.162;24.726;2023-12-04T03:04:36;46673.47;;;-141.97;100.00
7018;BME280;3549;42.162;24.726;2023-12-04T03:07:01;46473.66;;;-141.97;100.00
7018;BME280;3549;42.162;24.726;2023-12-04T03:09:27;46029.81;;;-141.97;100.00
7018;BME280;3549;42.162;24.726;2023-12-04T03:11:52;46062.47;;;-141.97;100.00
7018;BME280;3549;42.162;24.726;2023-12-04T03:14:18;46417.94;;;-141.97;100.00
7018;BME280;3549;42.162;24.726;2023-12-04T03:16:43;46189.28;;;-141.97;100.00
7018;BME280;3549;42.162;24.726;2023-12-04T03:19:08;46587.00;;;-141.97;100.00
7018;BME280;3549;42.162;24.726;2023-12-04T03:21:34;46273.81;;;-141.97;100.00
7018;BME280;3549;42.162;24.726;2023-12-04T03:23:59;46268.06;;;-141.97;100.00
7018;BME280;3549;42.162;24.726;2023-12-04T03:26:25;45991.41;;;-141.97;100.00
7018;BME280;3549;42.162;24.726;2023-12-04T03:28:50;46158.53;;;-141.97;100.00
7018;BME280;3549;42.162;24.726;2023-12-04T03:31:16;46243.09;;;-141.97;100.00
7018;BME280;3549;42.162;24.726;2023-12-04T03:33:41;46108.59;;;-141.97;100.00
7018;BME280;3549;42.162;24.726;2023-12-04T03:36:07;46254.59;;;-141.97;100.00
7018;BME280;3549;42.162;24.726;2023-12-04T03:38:32;46264.22;;;-141.97;100.00
7018;BME280;3549;42.162;24.726;2023-12-04T03:40:58;46606.22;;;-141.97;100.00
7018;BME280;3549;42.162;24.726;2023-12-04T03:43:23;46166.22;;;-141.97;100.00
7018;BME280;3549;42.162;24.726;2023-12-04T03:45:49;46118.19;;;-141.97;100.00
7018;BME280;3549;42.162;24.726;2023-12-04T03:48:14;46266.13;;;-141.97;100.00
7018;BME280;3549;42.162;24.726;2023-12-04T03:50:39;46273.81;;;-141.97;100.00
7018;BME280;3549;42.162;24.726;2023-12-04T03:53:05;46573.56;;;-141.97;100.00
7018;BME280;3549;42.162;24.726;2023-12-04T03:55:30;46106.66;;;-141.97;100.00
7018;BME280;3549;42.162;24.726;2023-12-04T03:57:56;46604.31;;;-141.97;100.00
7018;BME280;3549;42.162;24.726;2023-12-04T04:00:22;46523.59;;;-141.97;100.00
7018;BME280;3549;42.162;24.726;2023-12-04T04:02:48;46150.84;;;-141.97;100.00
7018;BME280;3549;42.162;24.726;2023-12-04T04:05:14;46465.97;;;-141.97;100.00
7018;BME280;3549;42.162;24.726;2023-12-04T04:07:39;46118.19;;;-141.97;100.00
7018;BME280;3549;42.162;24.726;2023-12-04T04:10:05;46097.06;;;-141.97;100.00
7018;BME280;3549;42.162;24.726;2023-12-04T04:12:32;46266.13;;;-141.97;100.00
7018;BME280;3549;42.162;24.726;2023-12-04T04:14:57;46246.94;;;-141.97;100.00
7018;BME280;3549;42.162;24.726;2023-12-04T04:17:23;46460.19;;;-141.97;100.00
7018;BME280;3549;42.162;24.726;2023-12-04T04:19:51;46252.69;;;-141.97;100.00
7018;BME280;3549;42.162;24.726;2023-12-04T04:22:17;46262.28;;;-141.97;100.00
7018;BME280;3549;42.162;24.726;2023-12-04T04:24:43;46210.41;;;-141.97;100.00
7018;BME280;3549;42.162;24.726;2023-12-04T04:29:36;46635.06;;;-141.97;100.00
7018;BME280;3549;42.162;24.726;2023-12-04T04:32:01;46558.19;;;-141.97;100.00
7018;BME280;3549;42.162;24.726;2023-12-04T04:34:36;46269.97;;;-141.97;100.00
7018;BME280;3549;42.162;24.726;2023-12-04T04:37:01;45947.22;;;-141.97;100.00
7018;BME280;3549;42.162;24.726;2023-12-04T04:39:26;46127.81;;;-141.97;100.00
7018;BME280;3549;42.162;24.726;2023-12-04T04:41:52;46089.38;;;-141.97;100.00
7018;BME280;3549;42.162;24.726;2023-12-04T04:44:17;46514.00;;;-141.97;100.00
7018;BME280;3549;42.162;24.726;2023-12-04T04:46:44;46014.44;;;-141.97;100.00
7018;BME280;3549;42.162;24.726;2023-12-04T04:49:09;46089.38;;;-141.97;100.00
7018;BME280;3549;42.162;24.726;2023-12-04T04:51:34;46677.31;;;-141.97;100.00
7018;BME280;3549;42.162;24.726;2023-12-04T04:54:00;46631.22;;;-141.97;100.00
7018;BME280;3549;42.162;24.726;2023-12-04T04:56:26;46483.25;;;-141.97;100.00
7018;BME280;3549;42.162;24.726;2023-12-04T04:58:52;46506.31;;;-141.97;100.00
7018;BME280;3549;42.162;24.726;2023-12-04T05:01:17;46170.06;;;-141.97;100.00
7018;BME280;3549;42.162;24.726;2023-12-04T05:03:43;46635.06;;;-141.97;100.00
7018;BME280;3549;42.162;24.726;2023-12-04T05:06:08;46296.88;;;-141.97;100.00
7018;BME280;3549;42.162;24.726;2023-12-04T05:08:34;46348.75;;;-141.97;100.00
7018;BME280;3549;42.162;24.726;2023-12-04T05:10:59;46068.25;;;-141.97;100.00
7018;BME280;3549;42.162;24.726;2023-12-04T05:13:25;46166.22;;;-141.97;100.00
7018;BME280;3549;42.162;24.726;2023-12-04T05:15:50;46254.59;;;-141.97;100.00
7018;BME280;3549;42.162;24.726;2023-12-04T05:18:15;46341.06;;;-141.97;100.00
7018;BME280;3549;42.162;24.726;2023-12-04T05:20:41;46187.38;;;-141.97;100.00
7018;BME280;3549;42.162;24.726;2023-12-04T05:23:06;46195.06;;;-141.97;100.00
7018;BME280;3549;42.162;24.726;2023-12-04T05:25:31;46114.34;;;-141.97;100.00
7018;BME280;3549;42.162;24.726;2023-12-04T05:27:57;46646.59;;;-141.97;100.00
7018;BME280;3549;42.162;24.726;2023-12-04T05:30:22;46150.84;;;-141.97;100.00
7018;BME280;3549;42.162;24.726;2023-12-04T05:32:48;46200.81;;;-141.97;100.00
7018;BME280;3549;42.162;24.726;2023-12-04T05:35:15;46131.66;;;-141.97;100.00
7018;BME280;3549;42.162;24.726;2023-12-04T05:37:41;46391.03;;;-141.97;100.00
7018;BME280;3549;42.162;24.726;2023-12-04T05:40:07;46068.25;;;-141.97;100.00
7018;BME280;3549;42.162;24.726;2023-12-04T05:42:33;46275.75;;;-141.97;100.00
7018;BME280;3549;42.162;24.726;2023-12-04T05:44:58;46473.66;;;-141.97;100.00
7018;BME280;3549;42.162;24.726;2023-12-04T05:47:25;46223.88;;;-141.97;100.00
7018;BME280;3549;42.162;24.726;2023-12-04T05:49:51;46204.66;;;-141.97;100.00
7018;BME280;3549;42.162;24.726;2023-12-04T05:52:16;46221.94;;;-141.97;100.00
7018;BME280;3549;42.162;24.726;2023-12-04T05:54:42;46125.88;;;-141.97;100.00
7018;BME280;3549;42.162;24.726;2023-12-04T05:57:07;46235.41;;;-141.97;100.00
7018;BME280;3549;42.162;24.726;2023-12-04T05:59:32;45987.56;;;-141.97;100.00
7018;BME280;3549;42.162;24.726;2023-12-04T06:01:58;46273.81;;;-141.97;100.00
7018;BME280;3549;42.162;24.726;2023-12-04T06:04:25;46189.28;;;-141.97;100.00
7018;BME280;3549;42.162;24.726;2023-12-04T06:06:50;46287.28;;;-141.97;100.00
7018;BME280;3549;42.162;24.726;2023-12-04T06:09:15;46047.13;;;-141.97;100.00
7018;BME280;3549;42.162;24.726;2023-12-04T06:11:42;46304.56;;;-141.97;100.00
7018;BME280;3549;42.162;24.726;2023-12-04T06:14:07;46654.28;;;-141.97;100.00
7018;BME280;3549;42.162;24.726;2023-12-04T06:16:33;46512.06;;;-141.97;100.00
7018;BME280;3549;42.162;24.726;2023-12-04T06:18:58;46596.63;;;-141.97;100.00
7018;BME280;3549;42.162;24.726;2023-12-04T06:21:23;46131.66;;;-141.97;100.00
7018;BME280;3549;42.162;24.726;2023-12-04T06:23:49;46608.16;;;-141.97;100.00
7018;BME280;3549;42.162;24.726;2023-12-04T06:26:15;46212.34;;;-141.97;100.00
7018;BME280;3549;42.162;24.726;2023-12-04T06:28:40;46254.59;;;-141.97;100.00
7018;BME280;3549;42.162;24.726;2023-12-04T06:31:06;46227.72;;;-141.97;100.00
7018;BME280;3549;42.162;24.726;2023-12-04T06:33:32;46246.94;;;-141.97;100.00
7018;BME280;3549;42.162;24.726;2023-12-04T06:35:58;46262.28;;;-141.97;100.00
7018;BME280;3549;42.162;24.726;2023-12-04T06:38:24;46162.38;;;-141.97;100.00
7018;BME280;3549;42.162;24.726;2023-12-04T06:40:50;46100.91;;;-141.97;100.00
7018;BME280;3549;42.162;24.726;2023-12-04T06:43:16;46110.50;;;-141.97;100.00
7018;BME280;3549;42.162;24.726;2023-12-04T06:45:46;46208.50;;;-141.97;100.00
7018;BME280;3549;42.162;24.726;2023-12-04T06:48:15;46106.66;;;-141.97;100.00
7018;BME280;3549;42.162;24.726;2023-12-04T06:50:41;46681.16;;;-141.97;100.00
7018;BME280;3549;42.162;24.726;2023-12-04T06:53:06;46162.38;;;-141.97;100.00
7018;BME280;3549;42.162;24.726;2023-12-04T06:55:32;46688.84;;;-141.97;100.00
7018;BME280;3549;42.162;24.726;2023-12-04T06:57:57;46097.06;;;-141.97;100.00
7018;BME280;3549;42.162;24.726;2023-12-04T07:02:58;46041.34;;;-141.97;100.00
7018;BME280;3549;42.162;24.726;2023-12-04T07:05:23;46642.75;;;-141.97;100.00
7018;BME280;3549;42.162;24.726;2023-12-04T07:07:49;46241.16;;;-141.97;100.00
7018;BME280;3549;42.162;24.726;2023-12-04T07:10:14;46206.56;;;-141.97;100.00
7018;BME280;3549;42.162;24.726;2023-12-04T07:12:44;46212.34;;;-141.97;100.00
7018;BME280;3549;42.162;24.726;2023-12-04T07:15:10;46266.13;;;-141.97;100.00
7018;BME280;3549;42.162;24.726;2023-12-04T07:17:36;46123.97;;;-141.97;100.00
7018;BME280;3549;42.162;24.726;2023-12-04T07:20:02;46538.97;;;-141.97;100.00
7018;BME280;3549;42.162;24.726;2023-12-04T07:22:27;46608.16;;;-141.97;100.00
7018;BME280;3549;42.162;24.726;2023-12-04T07:24:53;46195.06;;;-141.97;100.00
7018;BME280;3549;42.162;24.726;2023-12-04T07:27:18;46246.94;;;-141.97;100.00
7018;BME280;3549;42.162;24.726;2023-12-04T07:29:44;46154.69;;;-141.97;100.00
7018;BME280;3549;42.162;24.726;2023-12-04T07:32:09;46260.38;;;-141.97;100.00
7018;BME280;3549;42.162;24.726;2023-12-04T07:41:44;46519.75;;;-141.97;100.00
7018;BME280;3549;42.162;24.726;2023-12-04T07:48:06;46504.38;;;-141.97;100.00
7018;BME280;3549;42.162;24.726;2023-12-04T07:50:34;46506.31;;;-141.97;100.00
7018;BME280;3549;42.162;24.726;2023-12-04T07:56:38;46239.25;;;-141.97;100.00
7018;BME280;3549;42.162;24.726;2023-12-04T07:59:26;46702.31;;;-141.97;100.00
7018;BME280;3549;42.162;24.726;2023-12-04T08:01:51;46408.31;;;-141.97;100.00
7018;BME280;3549;42.162;24.726;2023-12-04T08:04:17;46600.47;;;-141.97;100.00
7018;BME280;3549;42.162;24.726;2023-12-04T08:06:43;46617.75;;;-141.97;100.00
7018;BME280;3549;42.162;24.726;2023-12-04T08:09:09;46546.66;;;-141.97;100.00
7018;BME280;3549;42.162;24.726;2023-12-04T08:15:12;45981.78;;;-141.97;100.00
7018;BME280;3549;42.162;24.726;2023-12-04T08:21:31;46043.28;;;-141.97;100.00
7018;BME280;3549;42.162;24.726;2023-12-04T08:24:11;45958.75;;;-141.97;100.00
7018;BME280;3549;42.162;24.726;2023-12-04T08:27:09;46020.22;;;-141.97;100.00
7018;BME280;3549;42.162;24.726;2023-12-04T08:29:34;46162.38;;;-141.97;100.00
7018;BME280;3549;42.162;24.726;2023-12-04T08:32:00;46608.16;;;-141.97;100.00
7018;BME280;3549;42.162;24.726;2023-12-04T08:34:28;46243.09;;;-141.97;100.00
7018;BME280;3549;42.162;24.726;2023-12-04T08:36:56;46066.31;;;-141.97;100.00
7018;BME280;3549;42.162;24.726;2023-12-04T08:39:31;46223.88;;;-141.97;100.00
7018;BME280;3549;42.162;24.726;2023-12-04T08:41:59;46025.97;;;-141.97;100.00
7018;BME280;3549;42.162;24.726;2023-12-04T08:44:39;46216.19;;;-141.97;100.00
7018;BME280;3549;42.162;24.726;2023-12-04T08:47:42;46200.81;;;-141.97;100.00
7018;BME280;3549;42.162;24.726;2023-12-04T08:50:25;46214.25;;;-141.97;100.00
7018;BME280;3549;42.162;24.726;2023-12-04T08:56:09;46012.53;;;-141.97;100.00
7018;BME280;3549;42.162;24.726;2023-12-04T08:58:35;45943.38;;;-141.97;100.00
7018;BME280;3549;42.162;24.726;2023-12-04T09:01:20;46016.38;;;-141.97;100.00
7018;BME280;3549;42.162;24.726;2023-12-04T09:03:45;46024.06;;;-141.97;100.00
7018;BME280;3549;42.162;24.726;2023-12-04T09:06:17;46148.94;;;-141.97;100.00
7018;BME280;3549;42.162;24.726;2023-12-04T09:08:43;46156.63;;;-141.97;100.00
7018;BME280;3549;42.162;24.726;2023-12-04T09:11:08;46104.75;;;-141.97;100.00
7018;BME280;3549;42.162;24.726;2023-12-04T09:13:34;46123.97;;;-141.97;100.00
7018;BME280;3549;42.162;24.726;2023-12-04T09:15:59;46196.97;;;-141.97;100.00
7018;BME280;3549;42.162;24.726;2023-12-04T09:18:25;46200.81;;;-141.97;100.00
7018;BME280;3549;42.162;24.726;2023-12-04T09:20:50;46269.97;;;-141.97;100.00
7018;BME280;3549;42.162;24.726;2023-12-04T09:31:42;45889.56;;;-141.97;100.00
7018;BME280;3549;42.162;24.726;2023-12-04T09:34:09;46058.63;;;-141.97;100.00
7018;BME280;3549;42.162;24.726;2023-12-04T09:36:34;46567.81;;;-141.97;100.00
7018;BME280;3549;42.162;24.726;2023-12-04T09:39:00;46170.06;;;-141.97;100.00
7018;BME280;3549;42.162;24.726;2023-12-04T09:41:26;46187.38;;;-141.97;100.00
7018;BME280;3549;42.162;24.726;2023-12-04T09:43:52;46074.00;;;-141.97;100.00
7018;BME280;3549;42.162;24.726;2023-12-04T09:46:18;46127.81;;;-141.97;100.00
7018;BME280;3549;42.162;24.726;2023-12-04T09:48:44;46300.72;;;-141.97;100.00
7018;BME280;3549;42.162;24.726;2023-12-04T09:51:10;46143.19;;;-141.97;100.00
7018;BME280;3549;42.162;24.726;2023-12-04T09:53:36;46158.53;;;-141.97;100.00
7018;BME280;3549;42.162;24.726;2023-12-04T09:56:07;46185.44;;;-141.97;100.00
7018;BME280;3549;42.162;24.726;2023-12-04T09:58:32;46158.53;;;-141.97;100.00
7018;BME280;3549;42.162;24.726;2023-12-04T10:01:02;46056.72;;;-141.97;100.00
7018;BME280;3549;42.162;24.726;2023-12-04T10:03:29;46439.06;;;-141.97;100.00
7018;BME280;3549;42.162;24.726;2023-12-04T10:05:55;45928.00;;;-141.97;100.00
7018;BME280;3549;42.162;24.726;2023-12-04T10:08:21;46154.69;;;-141.97;100.00
7018;BME280;3549;42.162;24.726;2023-12-04T10:10:47;45928.00;;;-141.97;100.00
7018;BME280;3549;42.162;24.726;2023-12-04T10:13:12;46195.06;;;-141.97;100.00
7018;BME280;3549;42.162;24.726;2023-12-04T10:15:48;45868.44;;;-141.97;100.00
7018;BME280;3549;42.162;24.726;2023-12-04T10:18:30;46583.16;;;-141.97;100.00
7018;BME280;3549;42.162;24.726;2023-12-04T10:20:58;46185.44;;;-141.97;100.00
7018;BME280;3549;42.162;24.726;2023-12-04T10:23:42;46193.13;;;-141.97;100.00
7018;BME280;3549;42.162;24.726;2023-12-04T10:26:08;46168.16;;;-141.97;100.00
7018;BME280;3549;42.162;24.726;2023-12-04T10:28:37;46544.75;;;-141.97;100.00
7018;BME280;3549;42.162;24.726;2023-12-04T10:31:03;46162.38;;;-141.97;100.00
7018;BME280;3549;42.162;24.726;2023-12-04T10:33:32;46150.84;;;-141.97;100.00
7018;BME280;3549;42.162;24.726;2023-12-04T10:35:58;45878.06;;;-141.97;100.00
7018;BME280;3549;42.162;24.726;2023-12-04T10:38:23;46137.41;;;-141.97;100.00
7018;BME280;3549;42.162;24.726;2023-12-04T10:40:49;46535.13;;;-141.97;100.00
7018;BME280;3549;42.162;24.726;2023-12-04T10:43:23;45893.41;;;-141.97;100.00
7018;BME280;3549;42.162;24.726;2023-12-04T10:45:50;46162.38;;;-141.97;100.00
7018;BME280;3549;42.162;24.726;2023-12-04T10:48:17;46154.69;;;-141.97;100.00
7018;BME280;3549;42.162;24.726;2023-12-04T10:50:45;45904.94;;;-141.97;100.00
7018;BME280;3549;42.162;24.726;2023-12-04T10:53:13;45976.03;;;-141.97;100.00
7018;BME280;3549;42.162;24.726;2023-12-04T10:55:39;46467.88;;;-141.97;100.00
7018;BME280;3549;42.162;24.726;2023-12-04T10:58:15;46100.91;;;-141.97;100.00
7018;BME280;3549;42.162;24.726;2023-12-04T11:00:46;46160.47;;;-141.97;100.00
7018;BME280;3549;42.162;24.726;2023-12-04T11:05:45;46385.25;;;-141.97;100.00
7018;BME280;3549;42.162;24.726;2023-12-04T11:08:16;46075.94;;;-141.97;100.00
7018;BME280;3549;42.162;24.726;2023-12-04T11:10:59;46175.84;;;-141.97;100.00
7018;BME280;3549;42.162;24.726;2023-12-04T11:13:30;45870.38;;;-141.97;100.00
7018;BME280;3549;42.162;24.726;2023-12-04T11:18:36;46385.25;;;-141.97;99.89
7018;BME280;3549;42.162;24.726;2023-12-04T11:21:15;45964.50;;;-141.97;100.00
7018;BME280;3549;42.162;24.726;2023-12-04T11:23:49;45887.66;;;-141.97;57.86
7018;BME280;3549;42.162;24.726;2023-12-04T11:26:16;45954.91;;;-141.97;56.91
7018;BME280;3549;42.162;24.726;2023-12-04T11:28:43;46300.72;;;-141.97;57.40
7018;BME280;3549;42.162;24.726;2023-12-04T11:31:09;46095.16;;;-141.97;57.11
7018;BME280;3549;42.162;24.726;2023-12-04T11:33:36;46054.81;;;-141.97;57.63
7018;BME280;3549;42.162;24.726;2023-12-04T11:36:08;46567.81;;;-141.97;56.74
7018;BME280;3549;42.162;24.726;2023-12-04T11:38:36;46139.34;;;-141.97;56.02
7018;BME280;3549;42.162;24.726;2023-12-04T11:41:22;46533.22;;;-141.97;55.81
7018;BME280;3549;42.162;24.726;2023-12-04T11:43:52;45860.75;;;-141.97;55.69
7018;BME280;3549;42.162;24.726;2023-12-04T11:46:23;46392.94;;;-141.97;56.75
7018;BME280;3549;42.162;24.726;2023-12-04T11:48:51;46108.59;;;-141.97;56.02
7018;BME280;3549;42.162;24.726;2023-12-04T11:54:17;46137.41;;;-141.97;55.39
7018;BME280;3549;42.162;24.726;2023-12-04T11:59:45;46143.19;;;-141.97;56.71
7018;BME280;3549;42.162;24.726;2023-12-04T12:02:11;46408.31;;;-141.97;55.45
7018;BME280;3549;42.162;24.726;2023-12-04T12:04:37;46031.75;;;-141.97;55.83
7018;BME280;3549;42.162;24.726;2023-12-04T12:07:04;46110.50;;;-141.97;55.44
7018;BME280;3549;42.162;24.726;2023-12-04T12:09:31;45920.31;;;-141.97;55.58
7018;BME280;3549;42.162;24.726;2023-12-04T12:12:00;46127.81;;;-141.97;55.42
7018;BME280;3549;42.162;24.726;2023-12-04T12:14:26;46116.28;;;-141.97;55.59
7018;BME280;3549;42.162;24.726;2023-12-04T12:16:54;46512.06;;;-141.97;54.86
7018;BME280;3549;42.162;24.726;2023-12-04T12:19:23;46095.16;;;-141.97;54.48
7018;BME280;3549;42.162;24.726;2023-12-04T12:21:49;46475.56;;;-141.97;54.02
7018;BME280;3549;42.162;24.726;2023-12-04T12:24:17;46125.88;;;-141.97;54.18
7018;BME280;3549;42.162;24.726;2023-12-04T12:26:43;45935.69;;;-141.97;53.21
7018;BME280;3549;42.162;24.726;2023-12-04T12:29:09;45916.47;;;-141.97;53.08
7018;BME280;3549;42.162;24.726;2023-12-04T12:31:38;46099.00;;;-141.97;51.95
7018;BME280;3549;42.162;24.726;2023-12-04T12:34:05;46089.38;;;-141.97;51.65
7018;BME280;3549;42.162;24.726;2023-12-04T12:36:31;46099.00;;;-141.97;51.41
7018;BME280;3549;42.162;24.726;2023-12-04T12:39:00;46064.41;;;-141.97;50.95
7018;BME280;3549;42.162;24.726;2023-12-04T12:41:26;45977.94;;;-141.97;51.04
7018;BME280;3549;42.162;24.726;2023-12-04T12:43:52;46072.09;;;-141.97;50.68
7018;BME280;3549;42.162;24.726;2023-12-04T12:46:18;45903.03;;;-141.97;51.36
7018;BME280;3549;42.162;24.726;2023-12-04T12:48:46;46089.38;;;-141.97;51.83
7018;BME280;3549;42.162;24.726;2023-12-04T12:51:12;46062.47;;;-141.97;51.46
7018;BME280;3549;42.162;24.726;2023-12-04T12:53:38;46079.78;;;-141.97;50.90
7018;BME280;3549;42.162;24.726;2023-12-04T12:56:04;45893.41;;;-141.97;51.42
7018;BME280;3549;42.162;24.726;2023-12-04T13:01:09;46300.72;;;-141.97;50.81
7018;BME280;3549;42.162;24.726;2023-12-04T13:03:35;46477.50;;;-141.97;50.58
7018;BME280;3549;42.162;24.726;2023-12-04T13:06:08;45897.25;;;-141.97;51.21
7018;BME280;3549;42.162;24.726;2023-12-04T13:08:34;46006.78;;;-141.97;50.56
7018;BME280;3549;42.162;24.726;2023-12-04T13:10:59;45833.88;;;-141.97;49.77
7018;BME280;3549;42.162;24.726;2023-12-04T13:13:25;46462.13;;;-141.97;49.88
7018;BME280;3549;42.162;24.726;2023-12-04T13:15:52;45808.91;;;-141.97;52.46
7018;BME280;3549;42.162;24.726;2023-12-04T13:18:19;45916.47;;;-141.97;54.54
7018;BME280;3549;42.162;24.726;2023-12-04T13:20:45;45831.94;;;-141.97;55.54
7018;BME280;3549;42.162;24.726;2023-12-04T13:23:10;45856.91;;;-141.97;56.04
7018;BME280;3549;42.162;24.726;2023-12-04T13:25:36;46379.50;;;-141.97;57.29
7018;BME280;3549;42.162;24.726;2023-12-04T13:28:01;46475.56;;;-141.97;57.43
7018;BME280;3549;42.162;24.726;2023-12-04T13:30:27;46114.34;;;-141.97;57.02
7018;BME280;3549;42.162;24.726;2023-12-04T13:32:52;46085.53;;;-141.97;57.17